createdAt,value
2023-02-22T00:00:47.774Z,2.11
2023-02-22T00:03:25.384Z,2.10
2023-02-22T00:05:59.781Z,2.10
2023-02-22T00:08:36.088Z,2.07
2023-02-22T00:11:09.482Z,2.06
2023-02-22T00:13:44.090Z,2.05
2023-02-22T00:16:18.723Z,2.06
2023-02-22T00:18:51.890Z,2.04
2023-02-22T00:21:24.567Z,2.04
2023-02-22T00:23:57.293Z,2.04
2023-02-22T00:26:30.302Z,2.01
2023-02-22T00:29:02.950Z,1.99
2023-02-22T00:31:40.314Z,2.00
2023-02-22T00:34:14.345Z,1.98
2023-02-22T00:36:48.703Z,1.96
2023-02-22T00:39:21.458Z,1.96
2023-02-22T00:41:54.006Z,1.95
2023-02-22T00:44:27.612Z,1.93
2023-02-22T00:47:00.317Z,1.91
2023-02-22T00:49:33.068Z,1.85
2023-02-22T00:52:06.529Z,1.81
2023-02-22T00:54:39.708Z,1.80
2023-02-22T00:57:12.356Z,1.81
2023-02-22T00:59:44.897Z,1.80
2023-02-22T01:02:18.381Z,1.81
2023-02-22T01:04:52.610Z,1.81
2023-02-22T01:07:25.334Z,1.80
2023-02-22T01:09:58.866Z,1.79
2023-02-22T01:12:32.297Z,1.81
2023-02-22T01:15:08.608Z,1.81
2023-02-22T01:17:43.320Z,1.81
2023-02-22T01:20:16.418Z,1.80
2023-02-22T01:22:50.494Z,1.80
2023-02-22T01:25:25.436Z,1.80
2023-02-22T01:28:01.113Z,1.78
2023-02-22T01:30:36.698Z,1.80
2023-02-22T01:33:09.716Z,1.80
2023-02-22T01:35:46.437Z,1.77
2023-02-22T01:38:19.309Z,1.79
2023-02-22T01:40:52.628Z,1.79
2023-02-22T01:43:28.078Z,1.75
2023-02-22T01:46:27.385Z,1.73
2023-02-22T01:49:06.057Z,1.69
2023-02-22T01:51:40.482Z,1.66
2023-02-22T01:54:27.355Z,1.65
2023-02-22T01:57:05.882Z,1.62
2023-02-22T01:59:40.587Z,1.57
2023-02-22T02:02:13.446Z,1.55
2023-02-22T02:04:46.689Z,1.54
2023-02-22T02:07:21.602Z,1.53
2023-02-22T02:09:59.225Z,1.49
2023-02-22T02:12:34.020Z,1.46
2023-02-22T02:15:25.513Z,1.44
2023-02-22T02:18:03.966Z,1.43
2023-02-22T02:20:46.356Z,1.42
2023-02-22T02:23:47.920Z,1.40
2023-02-22T02:26:35.052Z,1.38
2023-02-22T02:29:35.432Z,1.34
2023-02-22T02:32:23.460Z,1.31
2023-02-22T02:35:08.146Z,1.30
2023-02-22T02:38:00.400Z,1.26
2023-02-22T02:40:37.513Z,1.20
2023-02-22T02:43:30.853Z,1.15
2023-02-22T02:46:10.744Z,1.14
2023-02-22T02:48:47.170Z,1.14
2023-02-22T02:51:19.851Z,1.14
2023-02-22T02:53:53.039Z,1.14
2023-02-22T02:56:26.073Z,1.06
2023-02-22T02:58:58.697Z,0.92
2023-02-22T03:02:07.825Z,0.77
2023-02-22T03:04:50.015Z,0.65
2023-02-22T03:07:38.565Z,0.53
2023-02-22T03:10:46.374Z,0.43
2023-02-22T03:13:41.514Z,0.35
2023-02-22T03:16:20.850Z,0.30
2023-02-22T03:19:04.996Z,0.25
2023-02-22T03:21:48.189Z,0.21
2023-02-22T03:24:27.108Z,0.14
2023-02-22T03:27:03.477Z,0.11
2023-02-22T03:29:39.001Z,0.03
2023-02-22T03:32:17.967Z,-0.03
2023-02-22T03:34:59.827Z,-0.08
2023-02-22T03:37:35.935Z,-0.10
2023-02-22T03:40:16.316Z,-0.14
2023-02-22T03:42:53.138Z,-0.16
2023-02-22T03:45:27.813Z,-0.21
2023-02-22T03:48:09.544Z,-0.26
2023-02-22T03:50:42.504Z,-0.32
2023-02-22T03:53:18.111Z,-0.41
2023-02-22T03:55:52.454Z,-0.46
2023-02-22T03:58:25.683Z,-0.47
2023-02-22T04:00:58.466Z,-0.48
2023-02-22T04:03:31.771Z,-0.50
2023-02-22T04:06:04.990Z,-0.51
2023-02-22T04:08:37.755Z,-0.51
2023-02-22T04:11:10.843Z,-0.49
2023-02-22T04:13:44.240Z,-0.48
2023-02-22T04:16:17.895Z,-0.46
2023-02-22T04:18:50.563Z,-0.46
2023-02-22T04:21:26.548Z,-0.45
2023-02-22T04:23:59.969Z,-0.43
2023-02-22T04:26:33.340Z,-0.48
2023-02-22T04:29:08.538Z,-0.52
2023-02-22T04:31:42.929Z,-0.55
2023-02-22T04:34:15.551Z,-0.55
2023-02-22T04:36:48.294Z,-0.55
2023-02-22T04:39:21.634Z,-0.59
2023-02-22T04:41:56.274Z,-0.58
2023-02-22T04:44:29.587Z,-0.55
2023-02-22T04:47:02.685Z,-0.57
2023-02-22T04:49:38.046Z,-0.68
2023-02-22T04:52:09.992Z,-0.77
2023-02-22T04:54:43.512Z,-0.78
2023-02-22T04:57:16.610Z,-0.80
2023-02-22T04:59:51.189Z,-0.85
2023-02-22T05:02:24.422Z,-0.91
2023-02-22T05:04:57.602Z,-1.00
2023-02-22T05:07:30.695Z,-1.06
2023-02-22T05:10:04.136Z,-1.11
2023-02-22T05:12:37.578Z,-1.13
2023-02-22T05:15:11.180Z,-1.14
2023-02-22T05:17:43.896Z,-1.16
2023-02-22T05:20:31.090Z,-1.19
2023-02-22T05:23:04.189Z,-1.24
2023-02-22T05:25:38.797Z,-1.29
2023-02-22T05:28:16.845Z,-1.30
2023-02-22T05:30:50.167Z,-1.28
2023-02-22T05:33:22.793Z,-1.27
2023-02-22T05:35:56.148Z,-1.31
2023-02-22T05:38:28.804Z,-1.32
2023-02-22T05:41:01.954Z,-1.28
2023-02-22T05:43:34.637Z,-1.26
2023-02-22T05:46:07.790Z,-1.22
2023-02-22T05:48:40.865Z,-1.19
2023-02-22T05:51:13.594Z,-1.18
2023-02-22T05:53:46.604Z,-1.19
2023-02-22T05:56:25.383Z,-1.19
2023-02-22T05:58:58.620Z,-1.23
2023-02-22T06:01:31.946Z,-1.25
2023-02-22T06:04:04.892Z,-1.19
2023-02-22T06:06:37.851Z,-1.06
2023-02-22T06:09:10.737Z,-0.93
2023-02-22T06:11:43.537Z,-0.78
2023-02-22T06:14:16.832Z,-0.73
2023-02-22T06:16:56.686Z,-0.68
2023-02-22T06:19:29.888Z,-0.73
2023-02-22T06:22:03.227Z,-0.89
2023-02-22T06:24:35.906Z,-1.05
2023-02-22T06:27:08.868Z,-1.15
2023-02-22T06:29:41.546Z,-1.16
2023-02-22T06:32:14.819Z,-1.26
2023-02-22T06:34:48.574Z,-1.34
2023-02-22T06:37:21.244Z,-1.32
2023-02-22T06:39:53.872Z,-1.23
2023-02-22T06:42:26.700Z,-1.19
2023-02-22T06:44:59.959Z,-1.24
2023-02-22T06:47:33.050Z,-1.32
2023-02-22T06:50:06.239Z,-1.32
2023-02-22T06:52:42.111Z,-1.28
2023-02-22T06:55:20.844Z,-1.23
2023-02-22T06:57:53.492Z,-1.22
2023-02-22T07:00:27.855Z,-1.25
2023-02-22T07:03:00.636Z,-1.24
2023-02-22T07:05:33.557Z,-1.28
2023-02-22T07:08:08.198Z,-1.26
2023-02-22T07:10:41.703Z,-1.25
2023-02-22T07:13:15.533Z,-1.30
2023-02-22T07:15:48.268Z,-1.30
2023-02-22T07:18:21.454Z,-1.37
2023-02-22T07:20:55.380Z,-1.45
2023-02-22T07:23:28.156Z,-1.50
2023-02-22T07:26:05.570Z,-1.60
2023-02-22T07:28:38.650Z,-1.71
2023-02-22T07:31:11.338Z,-1.76
2023-02-22T07:33:43.971Z,-1.76
2023-02-22T07:36:18.203Z,-1.78
2023-02-22T07:38:51.590Z,-1.73
2023-02-22T07:41:24.505Z,-1.71
2023-02-22T07:43:57.809Z,-1.71
2023-02-22T07:46:30.903Z,-1.81
2023-02-22T07:49:03.565Z,-1.95
2023-02-22T07:51:37.248Z,-1.96
2023-02-22T07:54:09.882Z,-1.96
2023-02-22T07:56:47.474Z,-1.96
2023-02-22T07:59:21.941Z,-1.99
2023-02-22T08:01:56.608Z,-1.98
2023-02-22T08:04:29.585Z,-1.97
2023-02-22T08:07:03.854Z,-1.93
2023-02-22T08:09:37.471Z,-1.98
2023-02-22T08:12:10.588Z,-1.98
2023-02-22T08:14:45.418Z,-2.01
2023-02-22T08:17:18.382Z,-2.00
2023-02-22T08:19:51.048Z,-1.99
2023-02-22T08:22:24.406Z,-1.97
2023-02-22T08:24:57.012Z,-1.95
2023-02-22T08:27:31.059Z,-1.90
2023-02-22T08:30:06.139Z,-1.87
2023-02-22T08:32:39.046Z,-1.89
2023-02-22T08:35:13.740Z,-1.89
2023-02-22T08:37:48.098Z,-1.91
2023-02-22T08:40:23.424Z,-1.87
2023-02-22T08:42:56.288Z,-1.83
2023-02-22T08:45:29.565Z,-1.87
2023-02-22T08:48:02.173Z,-1.90
2023-02-22T08:50:36.279Z,-1.88
2023-02-22T08:53:09.716Z,-1.79
2023-02-22T08:55:43.203Z,-1.75
2023-02-22T08:58:15.964Z,-1.73
2023-02-22T09:00:50.350Z,-1.69
2023-02-22T09:03:24.030Z,-1.64
2023-02-22T09:05:56.813Z,-1.69
2023-02-22T09:08:31.329Z,-1.84
2023-02-22T09:11:04.172Z,-1.98
2023-02-22T09:13:36.896Z,-2.12
2023-02-22T09:16:09.649Z,-2.20
2023-02-22T09:18:44.389Z,-2.18
2023-02-22T09:21:17.085Z,-2.11
2023-02-22T09:23:50.087Z,-2.04
2023-02-22T09:26:23.845Z,-2.01
2023-02-22T09:28:56.479Z,-2.00
2023-02-22T09:31:29.306Z,-1.98
2023-02-22T09:34:04.273Z,-1.98
2023-02-22T09:36:38.681Z,-1.96
2023-02-22T09:39:11.885Z,-2.02
2023-02-22T09:41:47.823Z,-2.12
2023-02-22T09:44:38.293Z,-2.14
2023-02-22T09:47:18.409Z,-2.17
2023-02-22T09:49:57.639Z,-2.17
2023-02-22T09:52:33.377Z,-2.14
2023-02-22T09:55:11.248Z,-2.12
2023-02-22T09:57:44.789Z,-2.12
2023-02-22T10:00:20.667Z,-2.15
2023-02-22T10:03:13.211Z,-2.23
2023-02-22T10:05:48.613Z,-2.23
2023-02-22T10:08:21.964Z,-2.24
2023-02-22T10:10:58.433Z,-2.22
2023-02-22T10:13:54.365Z,-2.14
2023-02-22T10:16:30.416Z,-2.02
2023-02-22T10:19:17.727Z,-2.04
2023-02-22T10:21:57.724Z,-2.09
2023-02-22T10:24:38.121Z,-2.14
2023-02-22T10:27:30.419Z,-2.17
2023-02-22T10:30:26.023Z,-2.15
2023-02-22T10:33:20.041Z,-2.23
2023-02-22T10:35:54.100Z,-2.27
2023-02-22T10:38:30.310Z,-2.32
2023-02-22T10:41:12.168Z,-2.29
2023-02-22T10:43:45.458Z,-2.25
2023-02-22T10:46:20.289Z,-2.30
2023-02-22T10:48:55.395Z,-2.27
2023-02-22T10:51:28.487Z,-2.22
2023-02-22T10:54:13.719Z,-2.20
2023-02-22T10:56:55.740Z,-2.26
2023-02-22T10:59:39.988Z,-2.27
2023-02-22T11:02:31.944Z,-2.28
2023-02-22T11:05:06.326Z,-2.31
2023-02-22T11:07:39.337Z,-2.32
2023-02-22T11:10:11.923Z,-2.27
2023-02-22T11:12:45.668Z,-2.18
2023-02-22T11:15:24.603Z,-2.10
2023-02-22T11:17:59.027Z,-2.07
2023-02-22T11:20:34.939Z,-2.05
2023-02-22T11:23:08.436Z,-2.05
2023-02-22T11:25:44.045Z,-2.00
2023-02-22T11:28:20.211Z,-2.02
2023-02-22T11:30:53.049Z,-2.03
2023-02-22T11:33:28.437Z,-1.92
2023-02-22T11:36:04.938Z,-1.77
2023-02-22T11:38:41.635Z,-1.70
2023-02-22T11:41:23.083Z,-1.57
2023-02-22T11:43:56.177Z,-1.47
2023-02-22T11:46:32.278Z,-1.42
2023-02-22T11:49:09.248Z,-1.50
2023-02-22T11:52:03.592Z,-1.48
2023-02-22T11:54:54.124Z,-1.50
2023-02-22T11:57:50.876Z,-1.59
2023-02-22T12:00:39.593Z,-1.62
2023-02-22T12:03:35.220Z,-1.60
2023-02-22T12:06:14.768Z,-1.57
2023-02-22T12:09:00.277Z,-1.53
2023-02-22T12:11:51.008Z,-1.49
2023-02-22T12:14:55.349Z,-1.60
2023-02-22T12:17:31.412Z,-1.67
2023-02-22T12:20:09.946Z,-1.60
2023-02-22T12:22:46.078Z,-1.53
2023-02-22T12:25:21.558Z,-1.43
2023-02-22T12:27:55.708Z,-1.29
2023-02-22T12:30:33.081Z,-1.08
2023-02-22T12:33:18.332Z,-0.93
2023-02-22T12:35:53.651Z,-0.93
2023-02-22T12:38:38.658Z,-0.87
2023-02-22T12:41:14.345Z,-0.82
2023-02-22T12:43:52.909Z,-0.82
2023-02-22T12:46:28.588Z,-0.80
2023-02-22T12:49:30.219Z,-0.75
2023-02-22T12:52:21.736Z,-0.74
2023-02-22T12:55:04.221Z,-0.74
2023-02-22T12:57:41.717Z,-0.71
2023-02-22T13:00:40.083Z,-0.67
2023-02-22T13:03:37.189Z,-0.68
2023-02-22T13:06:15.548Z,-0.77
2023-02-22T13:09:06.259Z,-0.75
2023-02-22T13:11:45.512Z,-0.66
2023-02-22T13:14:36.752Z,-0.63
2023-02-22T13:17:33.837Z,-0.64
2023-02-22T13:20:19.460Z,-0.67
2023-02-22T13:23:07.315Z,-0.71
2023-02-22T13:25:46.087Z,-0.80
2023-02-22T13:28:57.237Z,-0.92
2023-02-22T13:31:57.318Z,-1.00
2023-02-22T13:34:59.659Z,-1.05
2023-02-22T13:37:38.408Z,-1.16
2023-02-22T13:40:17.857Z,-1.30
2023-02-22T13:43:11.541Z,-1.42
2023-02-22T13:45:56.786Z,-1.46
2023-02-22T13:48:57.376Z,-1.46
2023-02-22T13:51:48.259Z,-1.44
2023-02-22T13:54:31.458Z,-1.43
2023-02-22T13:57:04.595Z,-1.39
2023-02-22T13:59:39.690Z,-1.42
2023-02-22T14:02:15.912Z,-1.51
2023-02-22T14:04:48.949Z,-1.55
2023-02-22T14:07:29.460Z,-1.57
2023-02-22T14:10:02.619Z,-1.58
2023-02-22T14:12:41.915Z,-1.60
2023-02-22T14:15:30.422Z,-1.60
2023-02-22T14:18:01.199Z,-1.60
2023-02-22T14:20:37.093Z,-1.70
2023-02-22T14:23:30.675Z,-1.77
2023-02-22T14:26:24.324Z,-1.80
2023-02-22T14:29:04.192Z,-1.83
2023-02-22T14:31:52.270Z,-1.89
2023-02-22T14:34:54.180Z,-1.93
2023-02-22T14:37:39.486Z,-2.00
2023-02-22T14:40:26.081Z,-2.03
2023-02-22T14:43:13.649Z,-2.10
2023-02-22T14:45:59.703Z,-2.21
2023-02-22T14:48:40.942Z,-2.28
2023-02-22T14:51:25.878Z,-2.32
2023-02-22T14:54:06.567Z,-2.42
2023-02-22T14:56:48.458Z,-2.52
2023-02-22T14:59:25.216Z,-2.61
2023-02-22T15:02:11.865Z,-2.69
2023-02-22T15:04:53.013Z,-2.71
2023-02-22T15:07:30.416Z,-2.72
2023-02-22T15:10:25.187Z,-2.74
2023-02-22T15:13:09.891Z,-2.79
2023-02-22T15:15:49.095Z,-2.89
2023-02-22T15:18:27.278Z,-2.96
2023-02-22T15:21:13.426Z,-2.99
2023-02-22T15:23:49.631Z,-3.02
2023-02-22T15:26:37.488Z,-3.05
2023-02-22T15:29:28.760Z,-3.07
2023-02-22T15:32:01.563Z,-3.13
2023-02-22T15:34:34.956Z,-3.19
2023-02-22T15:37:29.330Z,-3.21
2023-02-22T15:40:11.972Z,-3.23
2023-02-22T15:42:49.807Z,-3.23
2023-02-22T15:45:25.367Z,-3.24
2023-02-22T15:47:58.836Z,-3.25
2023-02-22T15:50:37.159Z,-3.27
2023-02-22T15:53:19.344Z,-3.27
2023-02-22T15:56:01.060Z,-3.25
2023-02-22T15:58:34.423Z,-3.25
2023-02-22T16:01:11.058Z,-3.27
2023-02-22T16:03:47.289Z,-3.27
2023-02-22T16:06:37.857Z,-3.25
2023-02-22T16:09:12.050Z,-3.28
2023-02-22T16:11:46.691Z,-3.31
2023-02-22T16:14:38.860Z,-3.34
2023-02-22T16:17:25.072Z,-3.34
2023-02-22T16:20:03.908Z,-3.36
2023-02-22T16:22:38.586Z,-3.40
2023-02-22T16:25:25.338Z,-3.41
2023-02-22T16:28:02.624Z,-3.41
2023-02-22T16:30:39.639Z,-3.42
2023-02-22T16:33:13.974Z,-3.44
2023-02-22T16:35:48.349Z,-3.46
2023-02-22T16:38:21.386Z,-3.46
2023-02-22T16:40:56.127Z,-3.45
2023-02-22T16:43:32.313Z,-3.44
2023-02-22T16:46:07.282Z,-3.48
2023-02-22T16:48:42.640Z,-3.51
2023-02-22T16:51:21.532Z,-3.53
2023-02-22T16:53:56.174Z,-3.52
2023-02-22T16:56:31.180Z,-3.49
2023-02-22T16:59:08.898Z,-3.48
2023-02-22T17:01:42.568Z,-3.47
2023-02-22T17:04:21.641Z,-3.49
2023-02-22T17:06:54.684Z,-3.53
2023-02-22T17:09:27.628Z,-3.55
2023-02-22T17:12:01.970Z,-3.55
2023-02-22T17:14:35.669Z,-3.57
2023-02-22T17:17:10.901Z,-3.57
2023-02-22T17:19:43.918Z,-3.56
2023-02-22T17:22:22.085Z,-3.55
2023-02-22T17:24:54.946Z,-3.57
2023-02-22T17:27:27.624Z,-3.55
2023-02-22T17:30:02.454Z,-3.53
2023-02-22T17:32:35.667Z,-3.53
2023-02-22T17:35:08.492Z,-3.51
2023-02-22T17:37:41.197Z,-3.54
2023-02-22T17:40:15.666Z,-3.56
2023-02-22T17:42:50.645Z,-3.55
2023-02-22T17:45:24.363Z,-3.52
2023-02-22T17:47:59.350Z,-3.49
2023-02-22T17:50:32.625Z,-3.46
2023-02-22T17:53:05.913Z,-3.46
2023-02-22T17:55:40.733Z,-3.48
2023-02-22T17:58:16.369Z,-3.47
2023-02-22T18:00:50.961Z,-3.47
2023-02-22T18:03:26.093Z,-3.49
2023-02-22T18:06:01.395Z,-3.49
2023-02-22T18:08:34.286Z,-3.53
2023-02-22T18:11:07.503Z,-3.52
2023-02-22T18:13:40.571Z,-3.51
2023-02-22T18:16:13.714Z,-3.53
2023-02-22T18:18:49.471Z,-3.57
2023-02-22T18:21:22.781Z,-3.60
2023-02-22T18:23:55.808Z,-3.60
2023-02-22T18:26:29.385Z,-3.59
2023-02-22T18:29:03.706Z,-3.60
2023-02-22T18:31:38.137Z,-3.63
2023-02-22T18:34:13.160Z,-3.64
2023-02-22T18:36:46.005Z,-3.65
2023-02-22T18:39:18.721Z,-3.67
2023-02-22T18:41:51.551Z,-3.72
2023-02-22T18:44:26.132Z,-3.75
2023-02-22T18:46:59.164Z,-3.77
2023-02-22T18:49:32.665Z,-3.80
2023-02-22T18:52:05.445Z,-3.85
2023-02-22T18:54:40.317Z,-3.86
2023-02-22T18:57:13.657Z,-3.89
2023-02-22T18:59:47.045Z,-3.92
2023-02-22T19:02:20.698Z,-3.92
2023-02-22T19:04:54.402Z,-3.95
2023-02-22T19:07:27.671Z,-3.96
2023-02-22T19:10:00.803Z,-3.98
2023-02-22T19:12:34.009Z,-3.95
2023-02-22T19:15:07.962Z,-3.92
2023-02-22T19:17:42.751Z,-3.92
2023-02-22T19:20:15.505Z,-3.94
2023-02-22T19:22:49.385Z,-3.97
2023-02-22T19:25:22.525Z,-4.02
2023-02-22T19:27:58.471Z,-4.02
2023-02-22T19:30:32.684Z,-4.04
2023-02-22T19:33:05.915Z,-4.06
2023-02-22T19:35:41.750Z,-4.04
2023-02-22T19:38:15.593Z,-4.02
2023-02-22T19:40:48.579Z,-4.02
2023-02-22T19:43:21.865Z,-3.97
2023-02-22T19:45:54.713Z,-3.91
2023-02-22T19:48:27.456Z,-3.89
2023-02-22T19:51:06.318Z,-3.90
2023-02-22T19:53:39.891Z,-3.93
2023-02-22T19:56:16.234Z,-3.98
2023-02-22T19:58:50.904Z,-3.99
2023-02-22T20:01:33.527Z,-4.00
2023-02-22T20:04:08.502Z,-3.98
2023-02-22T20:06:42.931Z,-4.00
2023-02-22T20:09:21.172Z,-4.01
2023-02-22T20:11:55.061Z,-4.02
2023-02-22T20:14:28.834Z,-4.06
2023-02-22T20:17:01.586Z,-4.06
2023-02-22T20:19:36.106Z,-4.06
2023-02-22T20:22:08.737Z,-4.08
2023-02-22T20:24:42.191Z,-4.12
2023-02-22T20:27:15.056Z,-4.16
2023-02-22T20:29:47.859Z,-4.20
2023-02-22T20:32:22.809Z,-4.21
2023-02-22T20:34:55.525Z,-4.29
2023-02-22T20:37:28.310Z,-4.34
2023-02-22T20:40:01.002Z,-4.40
2023-02-22T20:42:34.661Z,-4.51
2023-02-22T20:45:09.748Z,-4.59
2023-02-22T20:47:43.659Z,-4.67
2023-02-22T20:50:16.405Z,-4.74
2023-02-22T20:52:49.786Z,-4.79
2023-02-22T20:55:22.705Z,-4.89
2023-02-22T20:57:55.980Z,-4.96
2023-02-22T21:00:28.927Z,-5.00
2023-02-22T21:03:02.107Z,-5.02
2023-02-22T21:05:34.596Z,-5.06
2023-02-22T21:08:07.190Z,-5.10
2023-02-22T21:10:44.277Z,-5.15
2023-02-22T21:13:16.989Z,-5.22
2023-02-22T21:15:51.993Z,-5.30
2023-02-22T21:18:25.203Z,-5.36
2023-02-22T21:20:58.039Z,-5.38
2023-02-22T21:23:31.037Z,-5.46
2023-02-22T21:26:04.010Z,-5.55
2023-02-22T21:28:53.316Z,-5.62
2023-02-22T21:31:13.483Z,-5.69
2023-02-22T21:33:49.364Z,-5.73
2023-02-22T21:36:24.642Z,-5.78
2023-02-22T21:39:04.048Z,-5.84
2023-02-22T21:41:39.711Z,-5.89
2023-02-22T21:44:11.631Z,-5.94
2023-02-22T21:46:47.422Z,-5.95
2023-02-22T21:49:23.703Z,-5.93
2023-02-22T21:51:56.852Z,-5.89
2023-02-22T21:54:29.657Z,-5.88
2023-02-22T21:57:04.135Z,-5.91
2023-02-22T21:59:36.936Z,-5.97
2023-02-22T22:02:11.653Z,-6.05
2023-02-22T22:04:46.059Z,-6.10
2023-02-22T22:07:19.792Z,-6.16
2023-02-22T22:09:54.373Z,-6.19
2023-02-22T22:12:37.492Z,-6.18
2023-02-22T22:15:04.801Z,-6.19
2023-02-22T22:17:38.072Z,-6.23
2023-02-22T22:20:14.878Z,-6.25
2023-02-22T22:22:47.613Z,-6.24
2023-02-22T22:25:21.636Z,-6.24
2023-02-22T22:27:56.025Z,-6.25
2023-02-22T22:30:28.794Z,-6.26
2023-02-22T22:33:01.726Z,-6.26
2023-02-22T22:35:34.710Z,-6.28
2023-02-22T22:38:09.038Z,-6.28
2023-02-22T22:40:42.170Z,-6.30
2023-02-22T22:43:15.518Z,-6.33
2023-02-22T22:45:48.463Z,-6.37
2023-02-22T22:48:22.831Z,-6.39
2023-02-22T22:51:03.495Z,-6.43
2023-02-22T22:53:38.599Z,-6.49
2023-02-22T22:56:19.426Z,-6.51
2023-02-22T22:58:57.561Z,-6.56
2023-02-22T23:01:32.742Z,-6.60
2023-02-22T23:04:06.713Z,-6.62
2023-02-22T23:06:41.917Z,-6.64
2023-02-22T23:09:29.751Z,-6.67
2023-02-22T23:12:12.660Z,-6.68
2023-02-22T23:14:47.128Z,-6.72
2023-02-22T23:17:21.647Z,-6.77
2023-02-22T23:19:56.140Z,-6.84
2023-02-22T23:22:29.896Z,-6.92
2023-02-22T23:25:02.628Z,-7.01
2023-02-22T23:27:35.572Z,-7.05
2023-02-22T23:30:12.731Z,-7.09
2023-02-22T23:32:50.033Z,-7.10
2023-02-22T23:35:22.912Z,-7.09
2023-02-22T23:37:57.184Z,-7.13
2023-02-22T23:40:29.912Z,-7.16
2023-02-22T23:43:05.201Z,-7.17
2023-02-22T23:45:38.856Z,-7.23
2023-02-22T23:48:12.715Z,-7.25
2023-02-22T23:50:46.593Z,-7.29
2023-02-22T23:53:19.166Z,-7.32
2023-02-22T23:55:51.657Z,-7.35
2023-02-22T23:58:26.331Z,-7.37
